Time;durP1;ratioP1;P1;durP2;ratioP2;P2;SDS_P1;SDS_P2;PMS_P1;PMS_P2;Temp;Humidity;BMP_temperature;BMP_pressure;BME280_temperature;BME280_humidity;BME280_pressure;Samples;Min_cycle;Max_cycle;Signal;HPM_P1;HPM_P2
2021/10/27 00:01:02;;;;;;;;;;;20.60;48.30;;;;;;494812;239;1080;-47
2021/10/27 00:03:03;;;;;;;;;;;20.50;48.30;;;;;;494783;239;2178;-47
2021/10/27 00:05:05;;;;;;;;;;;20.50;48.40;;;;;;494816;239;1307;-46
2021/10/27 00:07:06;;;;;;;;;;;20.60;48.40;;;;;;495220;239;1043;-46
2021/10/27 00:09:07;;;;;;;;;;;20.50;48.40;;;;;;495265;239;1321;-47
2021/10/27 00:11:08;;;;;;;;;;;20.50;48.40;;;;;;494727;239;1675;-46
2021/10/27 00:13:10;;;;;;;;;;;20.60;48.30;;;;;;495181;239;1209;-46
2021/10/27 00:15:11;;;;;;;;;;;20.50;48.20;;;;;;495310;239;1045;-47
2021/10/27 00:17:12;;;;;;;;;;;20.50;48.40;;;;;;495202;239;1250;-47
2021/10/27 00:19:13;;;;;;;;;;;20.50;48.40;;;;;;494816;239;1221;-46
2021/10/27 00:21:15;;;;;;;;;;;20.50;48.40;;;;;;495020;239;1157;-47
2021/10/27 00:23:16;;;;;;;;;;;20.50;48.40;;;;;;494787;239;2195;-46
2021/10/27 00:25:18;;;;;;;;;;;20.50;48.30;;;;;;495266;239;997;-46
2021/10/27 00:27:19;;;;;;;;;;;20.50;48.30;;;;;;495050;239;1176;-46
2021/10/27 00:29:20;;;;;;;;;;;20.60;48.40;;;;;;495279;239;1038;-46
2021/10/27 00:31:22;;;;;;;;;;;20.50;48.40;;;;;;495176;239;1249;-46
2021/10/27 00:33:23;;;;;;;;;;;20.50;48.40;;;;;;495110;236;1264;-46
2021/10/27 00:35:24;;;;;;;;;;;20.50;48.40;;;;;;495299;239;959;-46
2021/10/27 00:37:26;;;;;;;;;;;20.50;48.40;;;;;;494752;239;1234;-46
2021/10/27 00:39:27;;;;;;;;;;;20.50;48.40;;;;;;494845;239;1035;-46
2021/10/27 00:41:28;;;;;;;;;;;20.50;48.30;;;;;;495170;239;1205;-46
2021/10/27 00:43:30;;;;;;;;;;;20.50;48.40;;;;;;494957;239;2179;-46
2021/10/27 00:45:31;;;;;;;;;;;20.50;48.30;;;;;;495260;239;1136;-46
2021/10/27 00:47:32;;;;;;;;;;;20.50;48.30;;;;;;495225;239;1062;-47
2021/10/27 00:49:33;;;;;;;;;;;20.50;48.30;;;;;;494883;239;1142;-46
2021/10/27 00:51:35;;;;;;;;;;;20.50;48.30;;;;;;494687;239;1133;-46
2021/10/27 00:53:36;;;;;;;;;;;20.50;48.30;;;;;;495184;239;1207;-46
2021/10/27 00:55:37;;;;;;;;;;;20.50;48.40;;;;;;495131;239;1430;-46
2021/10/27 00:57:39;;;;;;;;;;;20.50;48.30;;;;;;495190;239;1528;-47
2021/10/27 00:59:40;;;;;;;;;;;20.60;48.30;;;;;;495299;239;1157;-46
2021/10/27 01:01:42;;;;;;;;;;;20.60;48.30;;;;;;494892;239;1153;-46
2021/10/27 01:03:43;;;;;;;;;;;20.50;48.40;;;;;;495162;239;2187;-47
2021/10/27 01:05:44;;;;;;;;;;;20.50;48.40;;;;;;494831;239;1139;-46
2021/10/27 01:07:46;;;;;;;;;;;20.50;48.50;;;;;;494771;239;1151;-47
2021/10/27 01:09:47;;;;;;;;;;;20.50;48.30;;;;;;495318;239;1021;-46
2021/10/27 01:11:48;;;;;;;;;;;20.50;48.40;;;;;;495124;239;1164;-46
2021/10/27 01:13:50;;;;;;;;;;;20.50;48.40;;;;;;494987;239;1066;-46
2021/10/27 01:15:51;;;;;;;;;;;20.50;48.30;;;;;;494757;239;1330;-46
2021/10/27 01:17:53;;;;;;;;;;;20.50;48.40;;;;;;495116;239;1818;-47
2021/10/27 01:19:54;;;;;;;;;;;20.60;48.30;;;;;;494980;239;1228;-47
2021/10/27 01:21:55;;;;;;;;;;;20.60;48.20;;;;;;495098;239;1197;-46
2021/10/27 01:23:56;;;;;;;;;;;20.50;48.30;;;;;;495258;239;2190;-46
2021/10/27 01:25:58;;;;;;;;;;;20.50;48.30;;;;;;495141;239;1161;-46
2021/10/27 01:27:59;;;;;;;;;;;20.40;48.30;;;;;;494783;239;1300;-46
2021/10/27 01:30:01;;;;;;;;;;;20.50;48.40;;;;;;495208;239;1073;-46
2021/10/27 01:32:02;;;;;;;;;;;20.50;48.40;;;;;;494884;239;2331;-46
2021/10/27 01:34:03;;;;;;;;;;;20.50;48.30;;;;;;494748;239;1183;-46
2021/10/27 01:36:04;;;;;;;;;;;20.50;48.30;;;;;;494798;239;1353;-46
2021/10/27 01:38:06;;;;;;;;;;;20.50;48.30;;;;;;495257;239;1299;-47
2021/10/27 01:40:07;;;;;;;;;;;20.50;48.30;;;;;;494808;239;1083;-46
2021/10/27 01:42:08;;;;;;;;;;;20.50;48.30;;;;;;494665;239;1382;-46
2021/10/27 01:44:10;;;;;;;;;;;20.50;48.40;;;;;;494848;239;2112;-47
2021/10/27 01:46:11;;;;;;;;;;;20.50;48.40;;;;;;494705;239;1097;-47
2021/10/27 01:48:12;;;;;;;;;;;20.50;48.30;;;;;;494751;239;1271;-46
2021/10/27 01:50:14;;;;;;;;;;;20.50;48.30;;;;;;495003;239;1191;-46
2021/10/27 01:52:15;;;;;;;;;;;20.50;48.30;;;;;;495234;239;1256;-46
2021/10/27 01:54:16;;;;;;;;;;;20.50;48.20;;;;;;494797;239;1063;-46
2021/10/27 01:56:17;;;;;;;;;;;20.40;48.30;;;;;;495109;239;1270;-46
2021/10/27 01:58:19;;;;;;;;;;;20.50;48.40;;;;;;494972;239;996;-47
2021/10/27 02:00:20;;;;;;;;;;;20.50;48.40;;;;;;495255;239;1028;-46
2021/10/27 02:02:21;;;;;;;;;;;20.50;48.40;;;;;;494707;239;1190;-47
2021/10/27 02:04:23;;;;;;;;;;;20.50;48.40;;;;;;494756;239;2115;-46
2021/10/27 02:06:24;;;;;;;;;;;20.50;48.40;;;;;;494764;239;1164;-46
2021/10/27 02:08:25;;;;;;;;;;;20.40;48.40;;;;;;494770;239;1707;-46
2021/10/27 02:10:27;;;;;;;;;;;20.40;48.50;;;;;;495246;239;1036;-46
2021/10/27 02:12:28;;;;;;;;;;;20.40;48.50;;;;;;495182;239;1323;-46
2021/10/27 02:14:29;;;;;;;;;;;20.40;48.50;;;;;;495163;239;1098;-46
2021/10/27 02:16:31;;;;;;;;;;;20.40;48.50;;;;;;494633;239;1359;-47
2021/10/27 02:18:32;;;;;;;;;;;20.40;48.50;;;;;;494708;239;1246;-46
2021/10/27 02:20:33;;;;;;;;;;;20.50;48.40;;;;;;494960;239;1228;-46
2021/10/27 02:22:35;;;;;;;;;;;20.50;48.30;;;;;;494699;239;1167;-47
2021/10/27 02:24:36;;;;;;;;;;;20.50;48.40;;;;;;494694;241;2469;-46
2021/10/27 02:26:37;;;;;;;;;;;20.50;48.40;;;;;;495204;239;1198;-46
2021/10/27 02:28:39;;;;;;;;;;;20.50;48.30;;;;;;494746;239;1346;-46
2021/10/27 02:30:41;;;;;;;;;;;20.50;48.30;;;;;;495238;239;1053;-47
2021/10/27 02:32:41;;;;;;;;;;;20.50;48.30;;;;;;495077;241;2054;-46
2021/10/27 02:34:42;;;;;;;;;;;20.50;48.20;;;;;;495003;239;1140;-45
2021/10/27 02:36:44;;;;;;;;;;;20.50;48.30;;;;;;494730;239;1213;-46
2021/10/27 02:38:45;;;;;;;;;;;20.50;48.20;;;;;;494794;239;1224;-47
2021/10/27 02:40:46;;;;;;;;;;;20.50;48.30;;;;;;495224;239;1422;-46
2021/10/27 02:42:48;;;;;;;;;;;20.50;48.30;;;;;;495209;239;1094;-46
2021/10/27 02:44:49;;;;;;;;;;;20.50;48.20;;;;;;494795;239;2187;-46
2021/10/27 02:46:50;;;;;;;;;;;20.50;48.20;;;;;;494927;239;1527;-46
2021/10/27 02:48:52;;;;;;;;;;;20.50;48.20;;;;;;495247;239;1065;-46
2021/10/27 02:50:53;;;;;;;;;;;20.50;48.20;;;;;;494937;239;1289;-46
2021/10/27 02:52:54;;;;;;;;;;;20.50;48.20;;;;;;494731;239;1212;-46
2021/10/27 02:54:56;;;;;;;;;;;20.50;48.20;;;;;;494814;239;1057;-46
2021/10/27 02:56:57;;;;;;;;;;;20.50;48.10;;;;;;494769;239;1381;-46
2021/10/27 02:58:58;;;;;;;;;;;20.50;48.20;;;;;;495231;239;1034;-46
2021/10/27 03:01:00;;;;;;;;;;;20.50;48.10;;;;;;495224;239;1373;-46
2021/10/27 03:03:01;;;;;;;;;;;20.50;48.20;;;;;;495249;239;1161;-47
2021/10/27 03:05:02;;;;;;;;;;;20.50;48.10;;;;;;495254;239;2114;-46
2021/10/27 03:07:04;;;;;;;;;;;20.50;48.20;;;;;;494991;239;1170;-46
2021/10/27 03:09:05;;;;;;;;;;;20.50;48.20;;;;;;495249;239;1020;-46
2021/10/27 03:11:06;;;;;;;;;;;20.50;48.10;;;;;;495104;239;1308;-46
2021/10/27 03:13:08;;;;;;;;;;;20.60;48.00;;;;;;495261;239;1186;-46
2021/10/27 03:15:09;;;;;;;;;;;20.50;48.00;;;;;;494830;239;1041;-46
2021/10/27 03:17:10;;;;;;;;;;;20.50;48.10;;;;;;494870;239;1535;-47
2021/10/27 03:19:12;;;;;;;;;;;20.50;48.10;;;;;;495256;239;1026;-46
2021/10/27 03:21:13;;;;;;;;;;;20.50;48.10;;;;;;494910;239;1265;-46
2021/10/27 03:23:14;;;;;;;;;;;20.50;48.10;;;;;;494866;239;1057;-46
2021/10/27 03:25:15;;;;;;;;;;;20.50;48.10;;;;;;495139;239;2127;-46
2021/10/27 03:27:17;;;;;;;;;;;20.50;48.00;;;;;;494803;239;1229;-46
2021/10/27 03:29:19;;;;;;;;;;;20.50;48.00;;;;;;495257;239;1028;-46
2021/10/27 03:31:20;;;;;;;;;;;20.50;48.10;;;;;;494806;239;1300;-46
2021/10/27 03:33:22;;;;;;;;;;;20.50;48.10;;;;;;495048;239;1177;-46
2021/10/27 03:35:22;;;;;;;;;;;20.50;48.10;;;;;;495205;241;2278;-46
2021/10/27 03:37:24;;;;;;;;;;;20.50;48.10;;;;;;495059;239;1067;-46
2021/10/27 03:39:25;;;;;;;;;;;20.50;48.10;;;;;;494821;239;1074;-46
2021/10/27 03:41:26;;;;;;;;;;;20.50;48.00;;;;;;494742;239;1042;-46
2021/10/27 03:43:28;;;;;;;;;;;20.50;48.10;;;;;;495024;239;1020;-46
2021/10/27 03:45:29;;;;;;;;;;;20.50;48.00;;;;;;495229;239;2194;-46
2021/10/27 03:47:30;;;;;;;;;;;20.50;48.10;;;;;;494760;239;1187;-46
2021/10/27 03:49:32;;;;;;;;;;;20.50;48.10;;;;;;494887;239;1070;-46
2021/10/27 03:51:33;;;;;;;;;;;20.50;48.10;;;;;;494612;239;1223;-46
2021/10/27 03:53:35;;;;;;;;;;;20.50;48.10;;;;;;495199;239;1080;-46
2021/10/27 03:55:36;;;;;;;;;;;20.50;48.10;;;;;;495163;239;1347;-47
2021/10/27 03:57:37;;;;;;;;;;;20.50;48.00;;;;;;495196;239;1049;-47
2021/10/27 03:59:38;;;;;;;;;;;20.60;48.00;;;;;;495222;239;1044;-46
2021/10/27 04:01:40;;;;;;;;;;;20.50;48.10;;;;;;495191;239;1284;-46
2021/10/27 04:03:41;;;;;;;;;;;20.50;48.10;;;;;;494988;239;1066;-46
2021/10/27 04:05:42;;;;;;;;;;;20.50;48.10;;;;;;495068;239;2186;-46
2021/10/27 04:07:44;;;;;;;;;;;20.50;48.10;;;;;;494675;239;1162;-46
2021/10/27 04:09:45;;;;;;;;;;;20.50;48.10;;;;;;494965;239;1044;-46
2021/10/27 04:11:46;;;;;;;;;;;20.50;48.00;;;;;;494684;239;1409;-46
2021/10/27 04:13:48;;;;;;;;;;;20.60;48.00;;;;;;494970;239;1064;-47
2021/10/27 04:15:49;;;;;;;;;;;20.60;48.00;;;;;;495174;239;1125;-46
2021/10/27 04:17:50;;;;;;;;;;;20.60;48.00;;;;;;494683;239;1462;-46
2021/10/27 04:19:52;;;;;;;;;;;20.50;48.10;;;;;;494919;239;1077;-46
2021/10/27 04:21:53;;;;;;;;;;;20.50;48.00;;;;;;494571;239;1338;-47
2021/10/27 04:23:54;;;;;;;;;;;20.50;48.00;;;;;;495133;239;1059;-46
2021/10/27 04:25:55;;;;;;;;;;;20.60;48.00;;;;;;495224;239;2170;-46
2021/10/27 04:27:57;;;;;;;;;;;20.60;48.00;;;;;;494786;239;1249;-46
2021/10/27 04:29:58;;;;;;;;;;;20.50;47.90;;;;;;494973;239;1105;-47
2021/10/27 04:32:00;;;;;;;;;;;20.60;48.00;;;;;;494993;239;1412;-46
2021/10/27 04:34:01;;;;;;;;;;;20.50;47.90;;;;;;494973;239;1218;-46
2021/10/27 04:36:02;;;;;;;;;;;20.50;47.90;;;;;;495090;239;1070;-46
2021/10/27 04:38:03;;;;;;;;;;;20.60;48.00;;;;;;494598;239;1224;-46
2021/10/27 04:40:05;;;;;;;;;;;20.50;47.90;;;;;;494841;239;1062;-46
2021/10/27 04:42:06;;;;;;;;;;;20.60;47.90;;;;;;494597;239;1350;-46
2021/10/27 04:44:08;;;;;;;;;;;20.60;48.00;;;;;;495134;239;1078;-46
2021/10/27 04:46:09;;;;;;;;;;;20.60;48.00;;;;;;494399;239;2179;-46
2021/10/27 04:48:12;;;;;;;;;;;20.50;48.00;;;;;;494464;239;1202;-46
2021/10/27 04:50:12;;;;;;;;;;;20.50;48.00;;;;;;494947;239;2241;-46
2021/10/27 04:52:13;;;;;;;;;;;20.50;48.00;;;;;;494728;238;1329;-47
2021/10/27 04:54:14;;;;;;;;;;;20.50;48.10;;;;;;494639;239;1036;-47
2021/10/27 04:56:16;;;;;;;;;;;20.50;48.00;;;;;;494589;239;1406;-46
2021/10/27 04:58:17;;;;;;;;;;;20.50;47.90;;;;;;494734;239;1267;-46
2021/10/27 05:00:18;;;;;;;;;;;20.50;48.00;;;;;;494483;239;1078;-46
2021/10/27 05:02:20;;;;;;;;;;;20.50;47.90;;;;;;494863;239;1348;-46
2021/10/27 05:04:21;;;;;;;;;;;20.50;48.00;;;;;;494570;239;1142;-46
2021/10/27 05:06:22;;;;;;;;;;;20.50;48.00;;;;;;494458;239;2127;-46
2021/10/27 05:08:24;;;;;;;;;;;20.50;48.00;;;;;;494660;239;1213;-46
2021/10/27 05:10:25;;;;;;;;;;;20.50;48.00;;;;;;494697;239;1341;-46
2021/10/27 05:12:27;;;;;;;;;;;20.50;48.00;;;;;;494631;239;1548;-46
2021/10/27 05:14:28;;;;;;;;;;;20.60;48.00;;;;;;494393;239;1356;-47
2021/10/27 05:16:29;;;;;;;;;;;20.60;48.00;;;;;;494393;239;1539;-47
2021/10/27 05:18:30;;;;;;;;;;;20.50;47.80;;;;;;494381;239;1050;-47
2021/10/27 05:20:32;;;;;;;;;;;20.60;47.90;;;;;;494397;239;1337;-46
2021/10/27 05:22:33;;;;;;;;;;;20.60;47.90;;;;;;494433;239;1212;-46
2021/10/27 05:24:35;;;;;;;;;;;20.50;47.90;;;;;;494679;239;1052;-46
2021/10/27 05:26:36;;;;;;;;;;;20.50;47.90;;;;;;494417;239;2203;-46
2021/10/27 05:28:37;;;;;;;;;;;20.50;47.80;;;;;;494450;239;1014;-46
2021/10/27 05:30:39;;;;;;;;;;;20.50;47.80;;;;;;494841;239;1230;-46
2021/10/27 05:32:40;;;;;;;;;;;20.60;47.80;;;;;;494327;239;1170;-46
2021/10/27 05:34:42;;;;;;;;;;;20.60;47.90;;;;;;494503;239;1075;-46
2021/10/27 05:36:44;;;;;;;;;;;20.60;47.90;;;;;;494503;239;1199;-47
2021/10/27 05:38:45;;;;;;;;;;;20.60;47.80;;;;;;494503;239;1189;-46
2021/10/27 05:40:46;;;;;;;;;;;20.60;47.90;;;;;;494522;239;1058;-46
2021/10/27 05:42:48;;;;;;;;;;;20.50;47.90;;;;;;494322;239;1083;-46
2021/10/27 05:44:50;;;;;;;;;;;20.50;47.80;;;;;;494398;239;1191;-47
2021/10/27 05:46:52;;;;;;;;;;;20.50;47.80;;;;;;494226;239;2303;-46
2021/10/27 05:49:00;;;;;;;;;;;20.60;47.90;;;;;;494146;241;2283;-46
2021/10/27 05:51:10;;;;;;;;;;;20.60;47.80;;;;;;493862;241;1585;-46
2021/10/27 05:55:27;;;;;;;;;;;20.60;47.80;;;;;;494322;241;1233;-47
2021/10/27 05:57:22;;;;;;;;;;;20.60;47.80;;;;;;493700;241;2196;-46
2021/10/27 05:59:23;;;;;;;;;;;20.50;47.80;;;;;;494246;239;1160;-46
2021/10/27 06:01:25;;;;;;;;;;;20.60;47.80;;;;;;494148;239;1555;-46
2021/10/27 06:03:26;;;;;;;;;;;20.60;47.90;;;;;;494261;239;1193;-46
2021/10/27 06:05:27;;;;;;;;;;;20.60;47.80;;;;;;494139;239;2182;-47
2021/10/27 06:07:31;;;;;;;;;;;20.60;47.90;;;;;;494055;239;1236;-46
2021/10/27 06:09:30;;;;;;;;;;;20.60;47.80;;;;;;494105;239;1552;-46
2021/10/27 06:11:32;;;;;;;;;;;20.60;47.80;;;;;;494055;239;1296;-46
2021/10/27 06:13:34;;;;;;;;;;;20.60;47.80;;;;;;494027;239;2096;-46
2021/10/27 06:15:34;;;;;;;;;;;20.50;47.80;;;;;;493957;239;2167;-46
2021/10/27 06:17:35;;;;;;;;;;;20.50;47.80;;;;;;494006;239;1226;-46
2021/10/27 06:19:37;;;;;;;;;;;20.60;47.90;;;;;;494079;239;1050;-46
2021/10/27 06:21:38;;;;;;;;;;;20.50;47.80;;;;;;494309;239;1315;-47
2021/10/27 06:23:40;;;;;;;;;;;20.60;47.80;;;;;;494388;239;1200;-47
2021/10/27 06:25:41;;;;;;;;;;;20.50;47.80;;;;;;494331;239;2174;-46
2021/10/27 06:27:45;;;;;;;;;;;20.50;47.80;;;;;;494008;239;1274;-47
2021/10/27 06:29:47;;;;;;;;;;;20.60;47.80;;;;;;493982;241;2143;-47
2021/10/27 06:31:49;;;;;;;;;;;20.50;47.80;;;;;;493906;241;1430;-46
2021/10/27 06:33:54;;;;;;;;;;;20.60;47.80;;;;;;493927;241;2243;-46
2021/10/27 06:35:57;;;;;;;;;;;20.50;47.80;;;;;;493700;241;1423;-46
2021/10/27 06:47:26;;;;;;;;;;;20.50;47.70;;;;;;494025;241;1091;-47
2021/10/27 06:49:27;;;;;;;;;;;20.60;47.80;;;;;;493955;239;2037;-46
2021/10/27 06:51:27;;;;;;;;;;;20.50;47.80;;;;;;493942;241;2133;-46
2021/10/27 06:53:29;;;;;;;;;;;20.60;47.80;;;;;;493927;239;1219;-46
2021/10/27 06:55:33;;;;;;;;;;;20.60;47.80;;;;;;493939;239;1051;-46
2021/10/27 06:57:33;;;;;;;;;;;20.50;47.70;;;;;;493682;241;2355;-46
2021/10/27 06:59:35;;;;;;;;;;;20.60;47.80;;;;;;493598;241;2391;-47
2021/10/27 07:01:53;;;;;;;;;;;20.50;47.70;;;;;;493541;241;2445;-47
2021/10/27 07:03:58;;;;;;;;;;;20.50;47.80;;;;;;492568;241;2121;-47
2021/10/27 07:06:13;;;;;;;;;;;20.50;47.80;;;;;;492981;241;2104;-46
2021/10/27 07:15:17;;;;;;;;;;;20.60;47.70;;;;;;493947;241;1081;-47
2021/10/27 07:17:13;;;;;;;;;;;20.60;47.70;;;;;;493665;241;2208;-47
2021/10/27 07:19:13;;;;;;;;;;;20.60;47.80;;;;;;494124;241;2272;-46
2021/10/27 07:21:14;;;;;;;;;;;20.50;47.80;;;;;;494011;239;1295;-46
2021/10/27 07:23:15;;;;;;;;;;;20.60;47.80;;;;;;494199;239;1271;-46
2021/10/27 07:25:17;;;;;;;;;;;20.60;47.80;;;;;;493997;239;1308;-46
2021/10/27 07:27:19;;;;;;;;;;;20.60;47.80;;;;;;493831;241;2202;-47
2021/10/27 07:29:21;;;;;;;;;;;20.60;47.70;;;;;;494037;239;1156;-47
2021/10/27 07:31:23;;;;;;;;;;;20.60;47.80;;;;;;493899;239;1828;-47
2021/10/27 07:33:23;;;;;;;;;;;20.50;47.70;;;;;;493978;241;1386;-46
2021/10/27 07:35:30;;;;;;;;;;;20.60;47.70;;;;;;494038;239;1107;-46
2021/10/27 07:39:57;;;;;;;;;;;20.60;47.70;;;;;;494174;241;1161;-46
2021/10/27 07:41:54;;;;;;;;;;;20.60;47.70;;;;;;493818;241;2064;-46
2021/10/27 07:43:57;;;;;;;;;;;20.50;47.80;;;;;;494048;239;1046;-46
2021/10/27 07:45:57;;;;;;;;;;;20.60;47.80;;;;;;493913;241;2295;-47
2021/10/27 07:47:58;;;;;;;;;;;20.50;47.70;;;;;;493924;239;1109;-46
2021/10/27 07:50:00;;;;;;;;;;;20.60;47.80;;;;;;494027;239;1093;-46
2021/10/27 07:52:01;;;;;;;;;;;20.50;47.80;;;;;;494056;239;1086;-46
2021/10/27 07:54:02;;;;;;;;;;;20.60;47.70;;;;;;494117;239;1277;-47
2021/10/27 07:56:04;;;;;;;;;;;20.60;47.80;;;;;;493936;239;1244;-46
2021/10/27 07:58:06;;;;;;;;;;;20.60;47.70;;;;;;493710;239;1109;-46
2021/10/27 08:00:06;;;;;;;;;;;20.60;47.80;;;;;;493755;239;1323;-46
2021/10/27 08:02:08;;;;;;;;;;;20.50;47.80;;;;;;494016;239;1094;-46
2021/10/27 08:04:09;;;;;;;;;;;20.50;47.80;;;;;;494104;239;1163;-46
2021/10/27 08:06:10;;;;;;;;;;;20.60;47.80;;;;;;494068;239;2186;-46
2021/10/27 08:08:12;;;;;;;;;;;20.60;47.80;;;;;;494284;239;1111;-46
2021/10/27 08:10:14;;;;;;;;;;;20.60;47.80;;;;;;494035;239;1207;-46
2021/10/27 08:12:15;;;;;;;;;;;20.50;47.80;;;;;;493891;239;1343;-47
2021/10/27 08:14:16;;;;;;;;;;;20.60;47.80;;;;;;493983;239;1067;-46
2021/10/27 08:16:19;;;;;;;;;;;20.50;47.70;;;;;;493897;239;1222;-46
2021/10/27 08:18:19;;;;;;;;;;;20.50;47.70;;;;;;493829;239;1459;-47
2021/10/27 08:20:20;;;;;;;;;;;20.60;47.80;;;;;;493776;239;1044;-46
2021/10/27 08:22:22;;;;;;;;;;;20.50;47.80;;;;;;493749;239;1319;-46
2021/10/27 08:24:24;;;;;;;;;;;20.50;47.80;;;;;;493779;239;1175;-46
2021/10/27 08:26:26;;;;;;;;;;;20.50;47.90;;;;;;493701;239;2111;-46
2021/10/27 08:28:33;;;;;;;;;;;20.50;47.90;;;;;;493666;239;1784;-47
2021/10/27 08:30:36;;;;;;;;;;;20.50;47.90;;;;;;493531;241;2455;-46
2021/10/27 08:32:45;;;;;;;;;;;20.50;47.90;;;;;;493519;241;2181;-47
2021/10/27 08:34:47;;;;;;;;;;;20.50;47.80;;;;;;493809;241;1954;-47
2021/10/27 08:36:48;;;;;;;;;;;20.50;47.90;;;;;;493652;241;2231;-46
2021/10/27 08:38:50;;;;;;;;;;;20.50;47.90;;;;;;493684;239;1302;-46
2021/10/27 08:40:51;;;;;;;;;;;20.50;47.90;;;;;;493933;239;1193;-46
2021/10/27 08:42:52;;;;;;;;;;;20.50;47.80;;;;;;493796;239;1115;-46
2021/10/27 08:44:54;;;;;;;;;;;20.50;47.80;;;;;;493709;239;1233;-46
2021/10/27 08:46:55;;;;;;;;;;;20.50;47.80;;;;;;493550;239;2136;-46
2021/10/27 08:48:56;;;;;;;;;;;20.60;47.80;;;;;;493617;239;1313;-47
2021/10/27 08:50:58;;;;;;;;;;;20.50;47.90;;;;;;493841;239;1172;-46
2021/10/27 08:53:00;;;;;;;;;;;20.50;47.80;;;;;;494212;239;1094;-47
2021/10/27 08:55:01;;;;;;;;;;;20.50;47.90;;;;;;493801;239;2197;-46
2021/10/27 08:57:02;;;;;;;;;;;20.50;47.80;;;;;;493871;239;1150;-47
2021/10/27 08:59:09;;;;;;;;;;;20.50;47.90;;;;;;493772;239;1070;-46
2021/10/27 09:01:10;;;;;;;;;;;20.60;48.00;;;;;;493598;241;1813;-46
2021/10/27 09:03:18;;;;;;;;;;;20.60;48.00;;;;;;493693;241;1326;-46
2021/10/27 09:08:00;;;;;;;;;;;20.50;47.90;;;;;;478850;247;2195;-46
2021/10/27 09:10:04;;;;;;;;;;;20.60;48.00;;;;;;477179;249;1978;-47
2021/10/27 09:14:43;;;;;;;;;;;20.60;47.80;;;;;;473461;250;1243;-46
2021/10/27 09:16:40;;;;;;;;;;;20.70;47.80;;;;;;472345;251;2215;-46
2021/10/27 09:35:05;;;;;;;;;;;20.80;47.50;;;;;;462198;254;1331;-46
2021/10/27 09:42:11;;;;;;;;;;;20.80;47.20;;;;;;487087;243;1340;-47
2021/10/27 09:44:16;;;;;;;;;;;20.80;47.20;;;;;;486448;243;2301;-46
2021/10/27 09:55:52;;;;;;;;;;;20.80;47.10;;;;;;478613;248;1129;-47
2021/10/27 10:04:37;;;;;;;;;;;20.80;47.20;;;;;;473608;250;1070;-46
2021/10/27 10:06:36;;;;;;;;;;;20.70;47.20;;;;;;473360;251;2197;-46
2021/10/27 10:08:37;;;;;;;;;;;20.70;47.30;;;;;;473761;251;1115;-47
2021/10/27 10:10:39;;;;;;;;;;;20.70;47.20;;;;;;473541;251;1193;-47
2021/10/27 10:12:40;;;;;;;;;;;20.80;47.30;;;;;;473294;251;1202;-46
2021/10/27 10:14:44;;;;;;;;;;;20.70;47.30;;;;;;473334;251;1141;-47
2021/10/27 10:16:43;;;;;;;;;;;20.80;47.30;;;;;;473231;251;2069;-47
2021/10/27 10:18:44;;;;;;;;;;;20.70;47.40;;;;;;473524;251;1181;-47
2021/10/27 10:20:45;;;;;;;;;;;20.70;47.30;;;;;;473614;251;1085;-46
2021/10/27 10:22:46;;;;;;;;;;;20.80;47.40;;;;;;473512;251;1258;-47
2021/10/27 10:24:48;;;;;;;;;;;20.80;47.40;;;;;;473560;251;1090;-46
2021/10/27 10:26:49;;;;;;;;;;;20.70;47.40;;;;;;473497;251;2201;-46
2021/10/27 10:28:50;;;;;;;;;;;20.70;47.40;;;;;;473532;251;1621;-47
2021/10/27 10:30:54;;;;;;;;;;;20.70;47.40;;;;;;473613;251;1329;-46
2021/10/27 10:32:54;;;;;;;;;;;20.70;47.40;;;;;;473234;251;1637;-46
2021/10/27 10:34:57;;;;;;;;;;;20.70;47.40;;;;;;473388;251;1105;-47
2021/10/27 10:37:00;;;;;;;;;;;20.70;47.40;;;;;;473121;251;2066;-46
2021/10/27 10:39:23;;;;;;;;;;;20.70;47.40;;;;;;473005;251;2053;-46
2021/10/27 10:41:17;;;;;;;;;;;20.70;47.50;;;;;;471918;251;2411;-47
2021/10/27 10:43:20;;;;;;;;;;;20.70;47.50;;;;;;472885;251;1663;-47
2021/10/27 10:45:36;;;;;;;;;;;20.70;47.50;;;;;;472898;251;2033;-46
2021/10/27 11:02:06;;;;;;;;;;;20.70;47.50;;;;;;486885;243;1342;-47
2021/10/27 11:11:35;;;;;;;;;;;20.70;47.60;;;;;;477003;249;2303;-47
2021/10/27 11:24:33;;;;;;;;;;;20.70;47.50;;;;;;473346;250;1398;-46
2021/10/27 11:38:15;;;;;;;;;;;20.70;47.60;;;;;;473388;251;1145;-46
2021/10/27 11:40:15;;;;;;;;;;;20.70;47.60;;;;;;473456;251;1411;-46
2021/10/27 11:42:21;;;;;;;;;;;20.70;47.60;;;;;;473335;251;2109;-47
2021/10/27 11:44:24;;;;;;;;;;;20.60;47.60;;;;;;473125;251;1342;-46
2021/10/27 11:46:25;;;;;;;;;;;20.70;47.60;;;;;;473234;251;2354;-46
2021/10/27 11:48:27;;;;;;;;;;;20.60;47.60;;;;;;473510;251;2245;-46
2021/10/27 11:50:24;;;;;;;;;;;20.60;47.60;;;;;;473529;251;1850;-46
2021/10/27 11:52:25;;;;;;;;;;;20.70;47.60;;;;;;473605;251;1086;-46
2021/10/27 11:54:28;;;;;;;;;;;20.70;47.70;;;;;;473512;251;1372;-46
2021/10/27 11:56:28;;;;;;;;;;;20.60;47.60;;;;;;473399;251;2172;-46
2021/10/27 11:58:29;;;;;;;;;;;20.70;47.70;;;;;;473465;251;1358;-46
2021/10/27 12:00:33;;;;;;;;;;;20.70;47.60;;;;;;473424;251;1221;-46
2021/10/27 12:02:33;;;;;;;;;;;20.70;47.60;;;;;;473169;251;2291;-47
2021/10/27 12:04:34;;;;;;;;;;;20.70;47.50;;;;;;473366;251;1112;-46
2021/10/27 12:06:42;;;;;;;;;;;20.70;47.50;;;;;;473317;243;1306;-46
2021/10/27 12:08:58;;;;;;;;;;;20.70;47.50;;;;;;473340;251;2298;-46
2021/10/27 12:11:04;;;;;;;;;;;20.70;47.50;;;;;;472650;251;1811;-46
2021/10/27 12:13:03;;;;;;;;;;;20.70;47.60;;;;;;472730;251;1702;-46
2021/10/27 12:17:26;;;;;;;;;;;20.70;47.60;;;;;;473304;250;1316;-46
2021/10/27 12:19:28;;;;;;;;;;;20.70;47.60;;;;;;473594;251;1776;-46
2021/10/27 12:21:28;;;;;;;;;;;20.70;47.50;;;;;;473318;251;2124;-47
2021/10/27 12:23:29;;;;;;;;;;;20.70;47.50;;;;;;473338;251;1137;-47
2021/10/27 12:25:30;;;;;;;;;;;20.70;47.60;;;;;;473374;251;1800;-46
2021/10/27 12:27:33;;;;;;;;;;;20.70;47.60;;;;;;473693;251;2205;-46
2021/10/27 12:29:33;;;;;;;;;;;20.70;47.60;;;;;;474110;251;2089;-46
2021/10/27 12:31:34;;;;;;;;;;;20.70;47.50;;;;;;473749;251;1660;-46
2021/10/27 12:33:36;;;;;;;;;;;20.70;47.60;;;;;;473887;251;1028;-46
2021/10/27 12:35:38;;;;;;;;;;;20.70;47.60;;;;;;473429;251;1144;-47
2021/10/27 12:37:40;;;;;;;;;;;20.70;47.60;;;;;;473226;251;1472;-46
2021/10/27 12:39:44;;;;;;;;;;;20.70;47.70;;;;;;473290;251;2248;-45
2021/10/27 12:41:45;;;;;;;;;;;20.70;47.70;;;;;;474107;251;2260;-46
2021/10/27 12:43:45;;;;;;;;;;;20.70;47.70;;;;;;473719;251;2116;-46
2021/10/27 12:45:47;;;;;;;;;;;20.60;47.70;;;;;;473550;251;1076;-46
2021/10/27 12:47:48;;;;;;;;;;;20.70;47.70;;;;;;473486;251;2130;-46
2021/10/27 12:49:49;;;;;;;;;;;20.70;47.70;;;;;;473477;251;1067;-46
2021/10/27 12:51:51;;;;;;;;;;;20.70;47.60;;;;;;473327;251;1236;-46
2021/10/27 12:53:52;;;;;;;;;;;20.70;47.60;;;;;;474263;251;1135;-47
2021/10/27 12:55:53;;;;;;;;;;;20.70;47.60;;;;;;473809;251;1568;-46
2021/10/27 12:57:56;;;;;;;;;;;20.70;47.60;;;;;;473120;251;1657;-46
2021/10/27 12:59:56;;;;;;;;;;;20.70;47.70;;;;;;473649;251;1863;-46
2021/10/27 13:02:04;;;;;;;;;;;20.60;47.60;;;;;;473802;251;1198;-46
2021/10/27 13:04:09;;;;;;;;;;;20.60;47.70;;;;;;473831;251;2282;-47
2021/10/27 13:08:58;;;;;;;;;;;20.70;47.70;;;;;;461533;254;2223;-47
2021/10/27 13:11:04;;;;;;;;;;;20.70;47.60;;;;;;472281;249;1380;-46
2021/10/27 13:13:16;;;;;;;;;;;20.60;47.70;;;;;;486697;243;2280;-47
2021/10/27 13:15:20;;;;;;;;;;;20.70;47.70;;;;;;486400;243;2309;-47
2021/10/27 13:19:59;;;;;;;;;;;20.70;47.50;;;;;;486857;244;1270;-46
2021/10/27 13:22:09;;;;;;;;;;;20.80;47.40;;;;;;477327;249;2236;-47
2021/10/27 13:31:24;;;;;;;;;;;21.00;47.10;;;;;;465047;256;1305;-46
2021/10/27 13:33:25;;;;;;;;;;;21.00;47.00;;;;;;465103;256;1149;-47
2021/10/27 13:35:27;;;;;;;;;;;21.00;47.00;;;;;;461624;258;907;-47
2021/10/27 13:37:29;;;;;;;;;;;21.00;47.00;;;;;;484885;243;1123;-46
2021/10/27 13:39:30;;;;;;;;;;;21.00;47.00;;;;;;477084;248;1414;-46
2021/10/27 13:41:32;;;;;;;;;;;21.00;47.00;;;;;;473515;251;1224;-46
2021/10/27 13:43:37;;;;;;;;;;;21.00;47.00;;;;;;473497;251;1232;-46
2021/10/27 13:45:38;;;;;;;;;;;21.00;47.10;;;;;;473212;251;2092;-46
2021/10/27 13:47:41;;;;;;;;;;;21.00;47.10;;;;;;473458;251;2294;-46
2021/10/27 13:49:49;;;;;;;;;;;20.90;47.10;;;;;;473395;251;2009;-46
2021/10/27 13:58:55;;;;;;;;;;;20.90;47.30;;;;;;473594;250;1200;-46
2021/10/27 14:07:48;;;;;;;;;;;20.80;47.40;;;;;;473561;250;2142;-46
2021/10/27 14:09:49;;;;;;;;;;;20.90;47.50;;;;;;473378;251;2165;-46
2021/10/27 14:11:58;;;;;;;;;;;20.80;47.40;;;;;;473330;251;2250;-46
2021/10/27 14:16:48;;;;;;;;;;;20.80;47.50;;;;;;468463;254;1576;-46
2021/10/27 14:18:50;;;;;;;;;;;20.80;47.50;;;;;;471516;252;1533;-47
2021/10/27 14:59:09;;;;;;;;;;;20.80;47.70;;;;;;476425;245;1255;-46